Time;durP1;ratioP1;P1;durP2;ratioP2;P2;SDS_P1;SDS_P2;PMS_P1;PMS_P2;Temp;Humidity;BMP_temperature;BMP_pressure;BME280_temperature;BME280_humidity;BME280_pressure;Samples;Min_cycle;Max_cycle;Signal;HPM_P1;HPM_P2
2022/04/14 00:01:37;;;;;;;11.88;7.70;;;11.70;99.90;;;;;;4989212;28;20117;-54
2022/04/14 00:04:02;;;;;;;14.02;7.97;;;11.70;99.90;;;;;;4991070;28;20022;-54
2022/04/14 00:06:28;;;;;;;11.80;8.13;;;11.70;99.90;;;;;;4990765;28;20222;-53
2022/04/14 00:08:54;;;;;;;9.68;7.82;;;11.70;99.90;;;;;;4989410;28;20392;-52
2022/04/14 00:11:20;;;;;;;9.18;6.72;;;11.60;99.90;;;;;;4990817;28;20031;-55
2022/04/14 00:13:45;;;;;;;11.43;7.43;;;11.60;99.90;;;;;;4989540;28;20504;-57
2022/04/14 00:16:11;;;;;;;10.73;7.13;;;11.60;99.90;;;;;;4986923;28;20467;-56
2022/04/14 00:18:37;;;;;;;8.75;6.63;;;11.60;99.90;;;;;;4990752;28;20030;-51
2022/04/14 00:21:02;;;;;;;11.27;7.55;;;11.60;99.90;;;;;;4990377;28;20034;-54
2022/04/14 00:23:28;;;;;;;12.38;7.45;;;11.60;99.90;;;;;;4988987;28;20065;-55
2022/04/14 00:28:23;;;;;;;10.05;6.97;;;11.50;99.90;;;;;;5007955;28;20050;-51
2022/04/14 00:30:48;;;;;;;11.23;6.93;;;11.50;99.90;;;;;;5005380;28;20041;-48
2022/04/14 00:33:14;;;;;;;8.85;6.78;;;11.50;99.90;;;;;;5002864;28;20072;-56
2022/04/14 00:35:40;;;;;;;8.30;6.93;;;11.50;99.90;;;;;;5010028;28;20030;-53
2022/04/14 00:38:05;;;;;;;7.85;6.97;;;11.40;99.90;;;;;;5010059;28;20036;-49
2022/04/14 00:40:31;;;;;;;10.65;7.50;;;11.40;99.90;;;;;;5010177;28;20741;-52
2022/04/14 00:42:57;;;;;;;11.13;8.13;;;11.40;99.90;;;;;;5009971;28;20030;-49
2022/04/14 00:45:22;;;;;;;11.68;8.27;;;11.40;99.90;;;;;;5009969;28;20473;-49
2022/04/14 00:47:49;;;;;;;9.25;8.07;;;11.40;99.90;;;;;;5009895;28;20084;-54
2022/04/14 00:50:15;;;;;;;11.93;8.07;;;11.40;99.90;;;;;;5009865;28;20424;-51
2022/04/14 00:52:45;;;;;;;11.68;7.32;;;11.40;99.90;;;;;;5002232;28;20018;-50
2022/04/14 00:55:12;;;;;;;12.85;8.70;;;11.40;99.90;;;;;;5009657;28;20022;-51
2022/04/14 00:57:38;;;;;;;9.55;7.10;;;11.40;99.90;;;;;;5009412;28;20036;-52
2022/04/14 01:00:05;;;;;;;10.25;7.88;;;11.40;99.90;;;;;;5007678;28;20117;-52
2022/04/14 01:02:31;;;;;;;10.30;7.25;;;11.40;99.90;;;;;;5007256;28;20641;-55
2022/04/14 01:04:58;;;;;;;10.98;7.68;;;11.40;99.90;;;;;;5008902;28;20065;-53
2022/04/14 01:07:25;;;;;;;10.30;6.82;;;11.40;99.90;;;;;;5009466;28;20440;-52
2022/04/14 01:09:51;;;;;;;12.98;8.07;;;11.40;99.90;;;;;;5009699;28;20392;-54
2022/04/14 01:12:18;;;;;;;12.48;7.75;;;11.40;99.90;;;;;;5009358;28;20105;-50
2022/04/14 01:14:43;;;;;;;14.85;8.82;;;11.40;99.90;;;;;;5009737;28;20160;-55
2022/04/14 01:17:10;;;;;;;15.35;8.93;;;11.40;99.90;;;;;;5009611;28;20527;-57
2022/04/14 01:19:37;;;;;;;15.38;8.32;;;11.40;99.90;;;;;;5010079;28;20396;-52
2022/04/14 01:22:11;;;;;;;10.68;7.82;;;11.40;99.90;;;;;;5009391;28;20030;-49
2022/04/14 01:24:38;;;;;;;11.00;7.38;;;11.30;99.90;;;;;;5009354;28;20715;-53
2022/04/14 01:27:04;;;;;;;11.85;7.82;;;11.40;99.90;;;;;;5009336;28;20030;-53
2022/04/14 01:29:30;;;;;;;13.50;8.55;;;11.30;99.90;;;;;;5008222;28;20033;-55
2022/04/14 01:31:57;;;;;;;10.18;7.47;;;11.30;99.90;;;;;;5008938;28;20026;-53
2022/04/14 01:34:23;;;;;;;14.73;8.82;;;11.30;99.90;;;;;;5009837;28;20117;-51
2022/04/14 01:36:48;;;;;;;17.33;8.85;;;11.30;99.90;;;;;;5009444;28;20097;-52
2022/04/14 01:39:14;;;;;;;12.10;8.40;;;11.30;99.90;;;;;;5009702;28;20499;-51
2022/04/14 01:41:41;;;;;;;10.85;7.55;;;11.30;99.90;;;;;;5008432;28;20037;-54
2022/04/14 01:44:08;;;;;;;13.55;8.73;;;11.30;99.90;;;;;;5013342;28;20444;-49
2022/04/14 01:46:34;;;;;;;10.95;7.88;;;11.30;99.90;;;;;;5013451;28;20026;-56
2022/04/14 01:49:00;;;;;;;13.75;9.30;;;11.30;99.90;;;;;;5013540;28;20032;-55
2022/04/14 01:51:26;;;;;;;11.98;8.48;;;11.30;99.90;;;;;;5011697;28;20084;-51
2022/04/14 01:53:52;;;;;;;11.27;8.85;;;11.30;99.90;;;;;;5013501;28;20037;-53
2022/04/14 01:56:18;;;;;;;15.20;8.90;;;11.30;99.90;;;;;;5013437;28;20392;-50
2022/04/14 01:58:44;;;;;;;13.65;9.30;;;11.30;99.90;;;;;;5013548;28;20561;-53
2022/04/14 02:01:10;;;;;;;10.98;8.70;;;11.30;99.90;;;;;;5013196;28;20052;-53
2022/04/14 02:03:36;;;;;;;11.77;8.82;;;11.20;99.90;;;;;;5011770;28;20030;-55
2022/04/14 02:06:02;;;;;;;14.20;8.82;;;11.30;99.90;;;;;;5012951;28;20056;-50
2022/04/14 02:08:28;;;;;;;12.73;8.88;;;11.30;99.90;;;;;;5012085;28;20429;-51
2022/04/14 02:10:54;;;;;;;14.70;8.85;;;11.30;99.90;;;;;;5012858;28;20041;-52
2022/04/14 02:13:20;;;;;;;14.65;9.30;;;11.20;99.90;;;;;;5012619;28;20026;-52
2022/04/14 02:15:46;;;;;;;13.07;8.98;;;11.20;99.90;;;;;;5012791;28;20022;-52
2022/04/14 02:18:12;;;;;;;14.65;9.68;;;11.20;99.90;;;;;;5012962;28;20165;-50
2022/04/14 02:20:37;;;;;;;15.05;9.90;;;11.20;99.90;;;;;;5012768;28;20096;-53
2022/04/14 02:23:03;;;;;;;16.95;9.50;;;11.20;99.90;;;;;;5012164;28;20041;-54
2022/04/14 02:25:29;;;;;;;14.25;10.30;;;11.20;99.90;;;;;;5012264;28;20033;-52
2022/04/14 02:27:55;;;;;;;13.63;10.00;;;11.20;99.90;;;;;;5011981;28;20030;-54
2022/04/14 02:30:20;;;;;;;14.40;10.70;;;11.20;99.90;;;;;;5012076;28;20148;-54
2022/04/14 02:32:46;;;;;;;14.00;10.10;;;11.10;99.90;;;;;;5011298;28;20107;-53
2022/04/14 02:35:12;;;;;;;16.00;10.05;;;11.10;99.90;;;;;;5013324;28;20030;-49
2022/04/14 02:37:38;;;;;;;14.48;9.00;;;11.10;99.90;;;;;;5012779;28;20092;-54
2022/04/14 02:40:04;;;;;;;15.60;10.45;;;11.10;99.90;;;;;;5012869;28;20037;-50
2022/04/14 02:42:30;;;;;;;16.25;10.43;;;11.10;99.90;;;;;;5011894;28;20022;-51
2022/04/14 02:44:56;;;;;;;16.27;10.90;;;11.10;99.90;;;;;;5012434;28;20080;-53
2022/04/14 02:47:21;;;;;;;16.63;11.23;;;11.10;99.90;;;;;;5012256;28;20030;-53
2022/04/14 02:49:50;;;;;;;16.60;10.25;;;11.00;99.90;;;;;;5012123;28;20373;-53
2022/04/14 02:52:15;;;;;;;14.25;9.98;;;11.00;99.90;;;;;;5010768;28;20026;-51
2022/04/14 02:54:41;;;;;;;17.85;11.00;;;11.00;99.90;;;;;;5011392;28;20028;-52
2022/04/14 02:57:08;;;;;;;16.48;11.32;;;11.00;99.90;;;;;;5011851;28;20026;-55
2022/04/14 02:59:34;;;;;;;14.82;11.02;;;11.00;99.90;;;;;;5012123;28;20042;-50
2022/04/14 03:02:00;;;;;;;16.25;11.05;;;11.00;99.90;;;;;;5010500;28;20108;-52
2022/04/14 03:04:26;;;;;;;17.35;11.93;;;10.90;99.90;;;;;;5011713;28;20026;-48
2022/04/14 03:06:52;;;;;;;17.23;12.05;;;10.90;99.90;;;;;;5011759;28;20053;-54
2022/04/14 03:09:18;;;;;;;15.48;10.30;;;10.90;99.90;;;;;;5011417;28;20521;-50
2022/04/14 03:11:43;;;;;;;14.70;10.07;;;10.90;99.90;;;;;;5011289;28;20037;-48
2022/04/14 03:14:09;;;;;;;15.35;10.15;;;10.90;99.90;;;;;;5012130;28;20022;-55
2022/04/14 03:16:34;;;;;;;15.90;10.15;;;10.80;99.90;;;;;;5012118;28;20030;-51
2022/04/14 03:19:00;;;;;;;15.13;11.05;;;10.80;99.90;;;;;;5011652;28;20037;-50
2022/04/14 03:21:25;;;;;;;17.50;11.30;;;10.80;99.90;;;;;;5011463;28;20480;-54
2022/04/14 03:23:51;;;;;;;13.65;9.52;;;10.70;99.90;;;;;;5011554;28;20038;-55
2022/04/14 03:26:16;;;;;;;16.77;11.48;;;10.70;99.90;;;;;;5011020;28;20065;-51
2022/04/14 03:28:42;;;;;;;13.65;9.75;;;10.70;99.90;;;;;;5011239;28;20068;-49
2022/04/14 03:31:08;;;;;;;18.58;11.95;;;10.70;99.90;;;;;;5010995;28;20432;-53
2022/04/14 03:33:33;;;;;;;16.77;11.85;;;10.70;99.90;;;;;;5011341;28;20033;-52
2022/04/14 03:35:59;;;;;;;15.65;11.77;;;10.70;99.90;;;;;;5011079;28;20033;-51
2022/04/14 03:38:25;;;;;;;19.98;13.60;;;10.70;99.90;;;;;;5011455;28;20033;-52
2022/04/14 03:40:51;;;;;;;21.50;13.25;;;10.60;99.90;;;;;;5011093;28;20097;-49
2022/04/14 03:43:16;;;;;;;20.90;12.45;;;10.70;99.90;;;;;;5010953;28;20040;-51
2022/04/14 03:45:42;;;;;;;21.60;14.60;;;10.60;99.90;;;;;;5011191;28;20030;-50
2022/04/14 03:48:08;;;;;;;21.48;13.63;;;10.60;99.90;;;;;;5011113;28;20037;-55
2022/04/14 03:50:33;;;;;;;21.13;14.48;;;10.70;99.90;;;;;;5011168;28;20480;-54
2022/04/14 03:52:59;;;;;;;19.98;13.48;;;10.60;99.90;;;;;;5011143;28;20177;-51
2022/04/14 03:55:25;;;;;;;19.42;13.02;;;10.60;99.90;;;;;;5010960;28;20030;-51
2022/04/14 03:57:50;;;;;;;22.35;14.27;;;10.60;99.90;;;;;;5010792;28;20101;-53
2022/04/14 04:00:16;;;;;;;20.02;14.50;;;10.50;99.90;;;;;;5010895;28;20077;-52
2022/04/14 04:02:41;;;;;;;20.05;14.10;;;10.50;99.90;;;;;;5010480;28;20025;-50
2022/04/14 04:05:08;;;;;;;19.13;12.40;;;10.50;99.90;;;;;;5008432;28;20030;-49
2022/04/14 04:07:33;;;;;;;19.60;12.77;;;10.50;99.90;;;;;;5009805;28;20025;-51
2022/04/14 04:09:59;;;;;;;23.10;15.15;;;10.50;99.90;;;;;;5010380;28;20469;-50
2022/04/14 04:12:24;;;;;;;21.42;13.50;;;10.40;99.90;;;;;;5010130;28;20030;-53
2022/04/14 04:14:50;;;;;;;20.63;13.82;;;10.40;99.90;;;;;;5010415;28;20026;-50
2022/04/14 04:17:16;;;;;;;20.33;13.63;;;10.40;99.90;;;;;;5010366;28;20512;-49
2022/04/14 04:19:43;;;;;;;18.65;12.98;;;10.40;99.90;;;;;;5008813;28;20113;-50
2022/04/14 04:22:09;;;;;;;19.73;14.18;;;10.40;99.90;;;;;;5010077;28;20022;-55
2022/04/14 04:24:35;;;;;;;18.02;12.85;;;10.40;99.90;;;;;;5010296;28;20048;-55
2022/04/14 04:27:00;;;;;;;21.88;14.43;;;10.40;99.90;;;;;;5010135;28;20034;-50
2022/04/14 04:29:26;;;;;;;22.42;14.65;;;10.40;99.90;;;;;;5009997;28;20036;-50
2022/04/14 04:31:51;;;;;;;21.67;14.20;;;10.40;99.90;;;;;;5010044;28;20026;-52
2022/04/14 04:34:17;;;;;;;18.65;14.20;;;10.40;99.90;;;;;;5010742;28;20049;-55
2022/04/14 04:36:43;;;;;;;19.73;13.82;;;10.40;99.90;;;;;;5010205;28;20025;-53
2022/04/14 04:39:08;;;;;;;18.27;13.13;;;10.40;99.90;;;;;;5009780;28;20408;-53
2022/04/14 04:41:34;;;;;;;22.23;14.65;;;10.40;99.90;;;;;;5009605;28;20500;-54
2022/04/14 04:44:00;;;;;;;21.48;14.95;;;10.40;99.90;;;;;;5010035;28;20476;-55
2022/04/14 04:46:25;;;;;;;22.67;14.82;;;10.40;99.90;;;;;;5009618;28;20038;-54
2022/04/14 04:48:51;;;;;;;21.90;14.32;;;10.40;99.90;;;;;;5009759;28;20026;-49
2022/04/14 04:51:17;;;;;;;18.88;13.35;;;10.40;99.90;;;;;;5009598;28;20385;-52
2022/04/14 04:53:46;;;;;;;23.00;15.18;;;10.30;99.90;;;;;;5009912;28;20485;-53
2022/04/14 04:56:11;;;;;;;25.73;16.85;;;10.40;99.90;;;;;;5009782;28;20664;-54
2022/04/14 04:58:37;;;;;;;25.55;15.25;;;10.40;99.90;;;;;;5009832;28;20025;-50
2022/04/14 05:01:03;;;;;;;20.05;14.75;;;10.40;99.90;;;;;;5009985;28;20432;-51
2022/04/14 05:03:28;;;;;;;21.10;14.98;;;10.40;99.90;;;;;;5009414;28;20148;-55
2022/04/14 05:05:54;;;;;;;19.58;13.50;;;10.40;99.90;;;;;;5009776;28;20030;-52
2022/04/14 05:08:19;;;;;;;19.50;13.95;;;10.40;99.90;;;;;;5009476;28;20045;-51
2022/04/14 05:10:45;;;;;;;22.33;14.43;;;10.40;99.90;;;;;;5009770;28;20026;-52
2022/04/14 05:13:13;;;;;;;25.90;17.08;;;10.40;99.90;;;;;;5009411;28;20022;-54
2022/04/14 05:15:38;;;;;;;21.08;15.00;;;10.40;99.90;;;;;;5009714;28;20018;-54
2022/04/14 05:18:04;;;;;;;25.05;16.70;;;10.40;99.90;;;;;;5009659;28;20507;-55
2022/04/14 05:20:30;;;;;;;20.88;14.40;;;10.40;99.90;;;;;;5009770;28;20057;-51
2022/04/14 05:22:55;;;;;;;20.88;15.63;;;10.40;99.90;;;;;;5008225;28;20029;-51
2022/04/14 05:25:21;;;;;;;22.95;15.73;;;10.50;99.90;;;;;;5009413;28;20084;-51
2022/04/14 05:27:47;;;;;;;21.77;15.30;;;10.50;99.90;;;;;;5009290;28;20057;-57
2022/04/14 05:30:14;;;;;;;25.77;16.35;;;10.50;99.90;;;;;;5009455;28;20415;-54
2022/04/14 05:32:40;;;;;;;24.63;16.95;;;10.50;99.90;;;;;;5009624;28;20028;-51
2022/04/14 05:35:09;;;;;;;24.73;16.48;;;10.50;99.90;;;;;;5009883;28;20022;-53
2022/04/14 05:37:35;;;;;;;25.33;15.98;;;10.60;99.90;;;;;;5009350;28;20045;-56
2022/04/14 05:40:03;;;;;;;23.77;16.63;;;10.60;99.90;;;;;;5009579;28;20511;-55
2022/04/14 05:42:29;;;;;;;23.85;15.73;;;10.60;99.90;;;;;;5009404;28;20033;-57
2022/04/14 05:44:54;;;;;;;23.67;17.00;;;10.70;99.90;;;;;;5009897;28;20499;-52
2022/04/14 05:47:23;;;;;;;24.77;16.73;;;10.70;99.90;;;;;;5009788;28;20400;-53
2022/04/14 05:49:49;;;;;;;28.63;17.13;;;10.70;99.90;;;;;;5009685;28;20080;-50
2022/04/14 05:52:15;;;;;;;23.90;17.55;;;10.70;99.90;;;;;;5009109;28;20038;-55
2022/04/14 05:54:41;;;;;;;27.08;16.50;;;10.80;99.90;;;;;;5009385;28;20048;-55
2022/04/14 05:57:06;;;;;;;27.00;18.00;;;10.90;99.90;;;;;;5009515;28;20036;-50
2022/04/14 05:59:32;;;;;;;23.90;15.98;;;10.90;99.90;;;;;;5009480;28;20026;-52
2022/04/14 06:01:57;;;;;;;27.45;17.55;;;10.90;99.90;;;;;;5008922;28;20028;-53
2022/04/14 06:04:23;;;;;;;27.45;18.70;;;11.00;99.90;;;;;;5009447;28;20033;-52
2022/04/14 06:06:48;;;;;;;26.65;18.20;;;11.00;99.90;;;;;;5009199;28;20030;-50
2022/04/14 06:09:14;;;;;;;26.77;17.02;;;11.00;99.90;;;;;;5008878;28;20068;-51
2022/04/14 06:11:40;;;;;;;26.27;18.00;;;11.10;99.90;;;;;;5009052;28;20117;-55
2022/04/14 06:14:05;;;;;;;27.77;18.02;;;11.10;99.90;;;;;;5009464;28;20025;-49
2022/04/14 06:16:31;;;;;;;27.85;18.60;;;11.20;99.90;;;;;;5009244;28;20033;-54
2022/04/14 06:18:57;;;;;;;27.45;18.33;;;11.20;99.90;;;;;;5009277;28;20026;-51
2022/04/14 06:21:23;;;;;;;30.00;17.45;;;11.20;99.90;;;;;;5009098;28;20052;-49
2022/04/14 06:23:49;;;;;;;26.98;17.60;;;11.30;99.90;;;;;;5008796;28;20400;-54
2022/04/14 06:26:15;;;;;;;29.75;18.02;;;11.30;99.90;;;;;;5003199;28;20104;-49
2022/04/14 06:28:42;;;;;;;26.20;17.98;;;11.40;99.90;;;;;;5028151;22;20058;-56
2022/04/14 06:31:08;;;;;;;26.13;16.88;;;11.40;99.90;;;;;;5011510;28;20029;-58
2022/04/14 06:33:33;;;;;;;24.98;16.65;;;11.40;99.90;;;;;;5011695;28;20373;-58
2022/04/14 06:35:59;;;;;;;27.50;16.73;;;11.50;99.90;;;;;;5011252;28;20061;-56
2022/04/14 06:38:27;;;;;;;27.48;17.63;;;11.50;99.90;;;;;;4994524;28;20034;-56
2022/04/14 06:40:53;;;;;;;21.77;17.13;;;11.50;99.90;;;;;;5012257;28;20133;-58
2022/04/14 06:43:19;;;;;;;27.48;17.70;;;11.60;99.90;;;;;;5011726;28;20033;-56
2022/04/14 06:45:44;;;;;;;28.08;17.85;;;11.70;99.90;;;;;;5011031;28;20034;-57
2022/04/14 06:48:10;;;;;;;21.55;15.70;;;11.70;99.90;;;;;;5010399;28;20029;-58
2022/04/14 06:50:36;;;;;;;22.92;16.92;;;11.70;99.90;;;;;;5012218;28;20065;-58
2022/04/14 06:53:02;;;;;;;23.88;16.48;;;11.70;99.90;;;;;;5011979;28;20022;-57
2022/04/14 06:55:28;;;;;;;21.67;16.48;;;11.80;99.90;;;;;;5012247;28;20025;-56
2022/04/14 06:57:54;;;;;;;25.17;16.38;;;11.80;99.90;;;;;;4993045;28;20080;-57
2022/04/14 07:00:21;;;;;;;25.70;17.63;;;11.80;99.90;;;;;;4991952;28;20519;-56
2022/04/14 07:02:46;;;;;;;23.40;17.38;;;11.90;99.90;;;;;;4991859;28;20061;-56
2022/04/14 07:05:12;;;;;;;26.17;17.77;;;11.90;99.90;;;;;;4993920;28;20030;-58
2022/04/14 07:07:38;;;;;;;25.75;16.63;;;11.90;99.90;;;;;;5009671;28;20081;-58
2022/04/14 07:10:04;;;;;;;28.17;17.92;;;12.00;99.90;;;;;;5010949;28;20087;-58
2022/04/14 07:12:29;;;;;;;26.58;18.20;;;12.00;99.90;;;;;;5009827;28;20377;-56
2022/04/14 07:14:55;;;;;;;28.00;18.55;;;12.00;99.90;;;;;;5011839;28;20049;-54
2022/04/14 07:17:22;;;;;;;30.90;19.67;;;12.00;99.90;;;;;;5009878;28;20517;-57
2022/04/14 07:19:47;;;;;;;28.95;20.77;;;12.00;99.90;;;;;;5010405;28;20026;-55
2022/04/14 07:22:19;;;;;;;29.27;22.52;;;12.00;99.90;;;;;;5011354;28;20445;-57
2022/04/14 07:24:48;;;;;;;31.17;21.98;;;12.00;99.90;;;;;;5011532;28;20030;-57
2022/04/14 07:27:15;;;;;;;37.35;24.17;;;12.00;99.90;;;;;;5008489;28;20034;-57
2022/04/14 07:29:40;;;;;;;28.52;23.25;;;12.00;99.90;;;;;;5009044;28;20026;-57
2022/04/14 07:32:06;;;;;;;33.65;23.55;;;12.00;99.90;;;;;;4996575;28;20030;-57
2022/04/14 07:34:32;;;;;;;30.55;23.30;;;12.00;99.90;;;;;;4991538;28;20041;-57
2022/04/14 07:36:57;;;;;;;31.85;23.10;;;12.10;99.90;;;;;;4990645;28;20512;-56
2022/04/14 07:39:23;;;;;;;36.75;22.95;;;12.10;99.90;;;;;;4991480;28;20034;-54
2022/04/14 07:41:49;;;;;;;33.28;22.35;;;12.10;99.90;;;;;;5023689;28;20381;-57
2022/04/14 07:44:14;;;;;;;28.70;21.10;;;12.10;99.90;;;;;;4993196;28;20045;-56
2022/04/14 07:46:41;;;;;;;32.63;21.85;;;12.10;99.90;;;;;;4991362;28;20041;-53
2022/04/14 07:49:07;;;;;;;29.65;22.00;;;12.20;99.90;;;;;;4992934;28;20493;-56
2022/04/14 07:51:32;;;;;;;26.88;21.38;;;12.30;99.90;;;;;;4991390;28;20054;-59
2022/04/14 07:53:58;;;;;;;29.67;21.33;;;12.30;99.90;;;;;;4992529;28;20030;-58
2022/04/14 07:56:24;;;;;;;27.98;20.83;;;12.40;99.90;;;;;;4991171;28;20030;-58
2022/04/14 07:58:50;;;;;;;28.17;20.77;;;12.50;99.90;;;;;;4993214;28;20030;-58
2022/04/14 08:01:18;;;;;;;29.55;21.15;;;12.60;99.90;;;;;;5009234;28;20022;-58
2022/04/14 08:03:46;;;;;;;29.17;21.75;;;12.70;99.90;;;;;;5009037;28;20118;-56
2022/04/14 08:06:13;;;;;;;29.52;20.00;;;12.80;99.90;;;;;;5010685;28;20060;-55
2022/04/14 08:08:39;;;;;;;29.17;20.90;;;12.90;99.90;;;;;;4987269;28;20081;-58
2022/04/14 08:11:05;;;;;;;27.23;18.55;;;12.90;99.90;;;;;;4977530;28;20034;-57
2022/04/14 08:13:35;;;;;;;25.30;19.38;;;12.90;99.90;;;;;;4972434;28;20520;-59
2022/04/14 08:16:05;;;;;;;26.60;19.10;;;12.80;99.90;;;;;;4977423;28;20081;-57
2022/04/14 08:18:32;;;;;;;23.25;18.20;;;12.80;99.90;;;;;;4972913;28;20118;-57
2022/04/14 08:20:59;;;;;;;25.80;18.75;;;12.70;99.90;;;;;;4980254;28;20373;-57
2022/04/14 08:23:25;;;;;;;26.30;18.63;;;12.70;99.90;;;;;;4972480;28;20023;-57
2022/04/14 08:25:50;;;;;;;28.27;18.15;;;12.60;99.90;;;;;;4973196;28;20030;-56
2022/04/14 08:28:16;;;;;;;23.13;16.77;;;12.60;99.90;;;;;;4977217;28;20022;-57
2022/04/14 08:30:42;;;;;;;25.40;17.92;;;12.60;99.90;;;;;;4990532;28;20034;-56
2022/04/14 08:33:10;;;;;;;24.33;17.13;;;12.50;99.90;;;;;;4999212;28;20045;-58
2022/04/14 08:35:36;;;;;;;25.63;18.02;;;12.60;99.90;;;;;;4990615;28;20022;-58
2022/04/14 08:38:04;;;;;;;22.52;16.50;;;12.70;99.90;;;;;;4990405;28;20034;-58
2022/04/14 08:40:36;;;;;;;23.02;17.10;;;12.80;99.90;;;;;;4989341;28;20413;-56
2022/04/14 08:43:09;;;;;;;24.60;18.58;;;12.90;99.90;;;;;;4990115;28;20508;-59
2022/04/14 08:45:44;;;;;;;23.75;18.17;;;13.00;99.90;;;;;;5021600;28;20561;-58
2022/04/14 08:48:12;;;;;;;22.63;15.73;;;13.00;99.90;;;;;;4990912;28;20059;-58
2022/04/14 08:50:38;;;;;;;24.45;16.80;;;13.00;99.90;;;;;;4989149;28;20033;-58
2022/04/14 08:53:04;;;;;;;20.85;15.88;;;13.10;99.90;;;;;;4989585;28;20481;-57
2022/04/14 08:55:31;;;;;;;21.15;16.25;;;13.20;99.90;;;;;;5001081;28;20496;-56
2022/04/14 08:57:57;;;;;;;22.15;16.88;;;13.40;99.90;;;;;;5002751;28;20034;-58
2022/04/14 09:00:22;;;;;;;20.73;16.10;;;13.50;99.90;;;;;;4992175;28;20030;-58
2022/04/14 09:02:50;;;;;;;20.10;15.05;;;13.70;99.90;;;;;;4993107;28;20035;-59
2022/04/14 09:05:17;;;;;;;20.85;14.73;;;13.90;99.90;;;;;;4994793;28;20041;-59
2022/04/14 09:07:50;;;;;;;22.70;15.98;;;13.90;99.90;;;;;;5002962;28;20670;-57
2022/04/14 09:10:17;;;;;;;18.63;15.35;;;14.00;99.90;;;;;;4986540;28;20718;-57
2022/04/14 09:12:43;;;;;;;22.25;16.48;;;14.00;99.90;;;;;;4989999;28;20041;-59
2022/04/14 09:15:09;;;;;;;22.88;16.20;;;14.00;99.90;;;;;;4987989;28;20125;-59
2022/04/14 09:17:35;;;;;;;21.52;16.00;;;14.10;99.90;;;;;;4990000;28;20395;-59
2022/04/14 09:20:42;;;;;;;23.42;16.40;;;14.20;99.90;;;;;;4991815;28;20501;-57
2022/04/14 09:23:15;;;;;;;19.27;15.02;;;14.30;99.90;;;;;;5006541;28;20083;-57
2022/04/14 09:25:42;;;;;;;21.50;15.73;;;14.30;99.90;;;;;;5007383;28;20049;-58
2022/04/14 09:28:10;;;;;;;18.75;14.65;;;14.40;99.90;;;;;;5008168;28;20034;-58
2022/04/14 09:30:35;;;;;;;21.77;14.20;;;14.40;99.90;;;;;;5006860;28;20056;-59
2022/04/14 09:33:02;;;;;;;17.35;14.25;;;14.50;99.90;;;;;;5009441;28;20500;-58
2022/04/14 09:35:31;;;;;;;20.42;15.40;;;14.60;99.90;;;;;;5009265;28;20026;-57
2022/04/14 09:38:06;;;;;;;20.63;14.23;;;14.60;99.90;;;;;;5009172;28;20022;-59
2022/04/14 09:40:37;;;;;;;17.30;14.02;;;14.80;99.90;;;;;;5007794;28;20026;-58
2022/04/14 09:43:04;;;;;;;19.02;13.82;;;14.80;99.90;;;;;;5009121;28;20026;-57
2022/04/14 09:45:32;;;;;;;19.23;14.02;;;14.90;99.90;;;;;;5008765;28;20463;-59
2022/04/14 09:48:01;;;;;;;19.75;14.15;;;14.80;99.90;;;;;;5009253;28;20018;-58
2022/04/14 09:50:34;;;;;;;17.95;13.32;;;14.80;99.90;;;;;;5009496;28;20088;-59
2022/04/14 09:53:07;;;;;;;20.10;14.20;;;14.70;99.90;;;;;;5009392;28;20049;-56
2022/04/14 09:55:49;;;;;;;16.85;13.77;;;14.70;99.90;;;;;;5009800;28;20025;-59
2022/04/14 09:58:16;;;;;;;20.73;14.07;;;14.60;99.90;;;;;;5009689;28;20076;-59
2022/04/14 10:00:45;;;;;;;16.30;12.55;;;14.60;99.90;;;;;;5009564;28;20025;-58
2022/04/14 10:03:16;;;;;;;19.60;13.18;;;14.60;99.90;;;;;;5009573;28;20125;-56
2022/04/14 10:05:43;;;;;;;20.23;14.05;;;14.70;99.90;;;;;;5013071;28;20026;-58
2022/04/14 10:08:09;;;;;;;17.15;12.80;;;14.90;99.90;;;;;;5011867;28;20026;-59
2022/04/14 10:10:37;;;;;;;18.67;13.00;;;15.00;99.90;;;;;;4996235;28;20030;-56
2022/04/14 10:13:07;;;;;;;15.82;12.65;;;15.20;99.90;;;;;;4993662;28;20022;-58
2022/04/14 10:15:38;;;;;;;16.17;11.00;;;15.30;99.90;;;;;;4993713;28;20290;-59
2022/04/14 10:18:10;;;;;;;15.95;10.98;;;15.40;99.90;;;;;;4994225;28;20049;-59
2022/04/14 10:20:40;;;;;;;17.38;11.93;;;15.50;99.90;;;;;;4992180;28;20027;-59
2022/04/14 10:23:08;;;;;;;16.27;11.77;;;15.60;99.90;;;;;;4993586;28;20481;-59
2022/04/14 10:25:37;;;;;;;16.65;11.52;;;15.70;99.90;;;;;;4993405;28;20061;-58
2022/04/14 10:28:13;;;;;;;13.60;10.25;;;15.80;99.90;;;;;;4993280;28;20037;-59
2022/04/14 10:30:40;;;;;;;13.90;12.50;;;16.00;99.90;;;;;;4993489;28;20115;-59
2022/04/14 10:33:06;;;;;;;12.23;10.65;;;16.10;99.90;;;;;;4993472;28;20121;-58
2022/04/14 10:35:32;;;;;;;14.93;10.07;;;16.30;99.90;;;;;;4993372;28;20113;-59
2022/04/14 10:38:15;;;;;;;13.18;9.27;;;16.30;99.90;;;;;;4993403;28;20037;-57
2022/04/14 10:40:48;;;;;;;13.88;9.52;;;16.40;99.90;;;;;;5004408;28;20026;-56
2022/04/14 10:43:18;;;;;;;10.95;9.15;;;16.50;99.90;;;;;;5012309;28;20030;-59
2022/04/14 10:45:52;;;;;;;10.13;9.05;;;16.60;99.90;;;;;;5012438;28;20029;-60
2022/04/14 10:48:31;;;;;;;9.85;8.60;;;16.70;99.90;;;;;;5010827;28;20053;-58
2022/04/14 10:51:27;;;;;;;11.90;8.73;;;16.80;99.90;;;;;;4996876;28;20050;-57
2022/04/14 10:54:00;;;;;;;11.68;8.30;;;16.90;99.90;;;;;;5009326;28;20022;-58
2022/04/14 10:56:34;;;;;;;10.05;8.52;;;17.00;99.90;;;;;;5012508;28;20030;-59
2022/04/14 10:59:01;;;;;;;9.30;7.60;;;16.90;99.90;;;;;;5010900;28;20029;-59
2022/04/14 11:01:45;;;;;;;11.40;8.55;;;17.00;99.90;;;;;;5012125;28;20088;-60
2022/04/14 11:04:38;;;;;;;9.40;8.40;;;16.90;99.90;;;;;;5012002;28;20041;-59
2022/04/14 11:07:09;;;;;;;12.75;8.82;;;16.90;99.90;;;;;;5011186;28;20040;-59
2022/04/14 11:09:53;;;;;;;9.15;8.10;;;16.90;99.90;;;;;;5012038;28;20053;-59
2022/04/14 11:12:20;;;;;;;9.38;7.13;;;16.70;99.90;;;;;;5009338;28;20448;-59
2022/04/14 11:15:06;;;;;;;10.82;7.68;;;16.70;99.90;;;;;;5011258;28;20060;-59
2022/04/14 11:17:37;;;;;;;9.35;6.95;;;16.80;99.90;;;;;;5010303;28;20025;-59
2022/04/14 11:20:13;;;;;;;7.03;5.68;;;16.90;99.90;;;;;;5009981;28;20034;-59
2022/04/14 11:23:01;;;;;;;7.63;5.72;;;17.10;99.90;;;;;;5004093;28;20031;-59
2022/04/14 11:25:45;;;;;;;6.43;5.82;;;17.20;99.90;;;;;;4991880;28;20508;-58
2022/04/14 11:28:17;;;;;;;7.18;6.00;;;17.10;99.90;;;;;;5008839;28;20092;-59
2022/04/14 11:30:43;;;;;;;9.02;6.10;;;17.10;99.90;;;;;;5010922;28;20014;-58
2022/04/14 11:33:22;;;;;;;6.70;5.05;;;17.10;99.90;;;;;;4983292;28;20026;-59
2022/04/14 11:35:48;;;;;;;7.68;5.70;;;17.10;99.90;;;;;;4991894;28;20030;-59
2022/04/14 11:38:52;;;;;;;5.75;5.00;;;17.10;99.90;;;;;;4991110;28;20088;-59
2022/04/14 11:41:41;;;;;;;5.80;5.00;;;17.20;99.90;;;;;;4991689;28;20040;-59
2022/04/14 11:44:12;;;;;;;6.75;6.00;;;17.20;99.90;;;;;;4993791;28;20064;-59
2022/04/14 11:46:46;;;;;;;7.10;5.03;;;17.00;99.90;;;;;;5020216;28;20405;-60
2022/04/14 11:49:14;;;;;;;7.18;5.80;;;16.90;99.90;;;;;;5005515;28;20512;-59
2022/04/14 11:51:48;;;;;;;7.90;5.15;;;17.00;99.90;;;;;;4996814;28;20117;-59
2022/04/14 11:54:33;;;;;;;6.60;5.18;;;17.10;99.90;;;;;;4990304;28;20515;-60
2022/04/14 11:57:18;;;;;;;5.95;5.32;;;17.20;99.90;;;;;;5005812;28;20056;-59
2022/04/14 11:59:45;;;;;;;7.10;5.55;;;17.30;99.90;;;;;;5009216;28;20463;-59
2022/04/14 12:02:18;;;;;;;9.65;5.05;;;17.20;99.90;;;;;;5007641;28;20037;-59
2022/04/14 12:04:49;;;;;;;5.28;4.65;;;17.20;99.90;;;;;;4991325;28;20102;-59
2022/04/14 12:07:16;;;;;;;6.15;4.95;;;16.90;99.90;;;;;;4997760;28;20033;-56
2022/04/14 12:09:43;;;;;;;6.80;4.30;;;16.80;99.90;;;;;;5011069;28;20039;-59
2022/04/14 12:12:13;;;;;;;5.82;4.75;;;16.80;99.90;;;;;;5008649;28;20080;-59
2022/04/14 12:14:46;;;;;;;6.85;4.93;;;16.70;99.90;;;;;;5009530;28;20030;-58
2022/04/14 12:17:12;;;;;;;5.93;4.25;;;16.80;99.90;;;;;;5008773;28;20520;-59
2022/04/14 12:19:44;;;;;;;6.28;4.80;;;16.80;99.90;;;;;;4991119;28;20034;-59
2022/04/14 12:22:10;;;;;;;4.90;4.13;;;16.70;99.90;;;;;;4992765;28;20042;-59
2022/04/14 12:24:36;;;;;;;6.63;4.63;;;16.70;99.90;;;;;;5005582;28;20033;-59
2022/04/14 12:27:02;;;;;;;5.70;5.10;;;16.50;99.90;;;;;;4993898;28;20456;-59
2022/04/14 12:29:28;;;;;;;4.97;4.55;;;16.40;99.90;;;;;;4982487;22;20509;-76
2022/04/14 12:32:13;;;;;;;4.88;4.15;;;16.20;99.90;;;;;;4971226;28;20101;-76
2022/04/14 12:34:45;;;;;;;4.80;4.25;;;16.10;99.90;;;;;;4970439;28;20165;-76
2022/04/14 12:37:13;;;;;;;5.20;4.20;;;16.00;99.90;;;;;;4969847;28;20397;-76
2022/04/14 12:39:59;;;;;;;7.35;4.38;;;16.00;99.90;;;;;;4971764;28;20061;-77